sensor_id;sensor_type;location;lat;lon;timestamp;temperature;humidity
47540;DHT22;33280;52.152;21.052;2024-02-23T00:02:19;8.70;99.90
47540;DHT22;33280;52.152;21.052;2024-02-23T00:05:06;8.70;99.90
47540;DHT22;33280;52.152;21.052;2024-02-23T00:07:54;8.80;99.90
47540;DHT22;33280;52.152;21.052;2024-02-23T00:10:42;8.80;99.90
47540;DHT22;33280;52.152;21.052;2024-02-23T00:13:29;8.70;99.90
47540;DHT22;33280;52.152;21.052;2024-02-23T00:16:17;8.70;99.90
47540;DHT22;33280;52.152;21.052;2024-02-23T00:19:04;8.70;99.90
47540;DHT22;33280;52.152;21.052;2024-02-23T00:21:52;8.70;99.90
47540;DHT22;33280;52.152;21.052;2024-02-23T00:24:40;8.70;99.90
47540;DHT22;33280;52.152;21.052;2024-02-23T00:27:28;8.80;99.90
47540;DHT22;33280;52.152;21.052;2024-02-23T00:30:15;8.80;99.90
47540;DHT22;33280;52.152;21.052;2024-02-23T00:33:03;8.80;99.90
47540;DHT22;33280;52.152;21.052;2024-02-23T00:35:51;8.80;99.90
47540;DHT22;33280;52.152;21.052;2024-02-23T00:38:45;8.80;99.90
47540;DHT22;33280;52.152;21.052;2024-02-23T00:41:33;8.80;99.90
47540;DHT22;33280;52.152;21.052;2024-02-23T00:44:21;8.70;99.90
47540;DHT22;33280;52.152;21.052;2024-02-23T00:47:09;8.80;99.90
47540;DHT22;33280;52.152;21.052;2024-02-23T00:49:59;8.80;99.90
47540;DHT22;33280;52.152;21.052;2024-02-23T00:52:49;8.70;99.90
47540;DHT22;33280;52.152;21.052;2024-02-23T00:55:38;8.70;99.90
47540;DHT22;33280;52.152;21.052;2024-02-23T00:58:25;8.70;99.90
47540;DHT22;33280;52.152;21.052;2024-02-23T01:01:13;8.70;99.90
47540;DHT22;33280;52.152;21.052;2024-02-23T01:04:01;8.70;99.90
47540;DHT22;33280;52.152;21.052;2024-02-23T01:06:48;8.70;99.90
47540;DHT22;33280;52.152;21.052;2024-02-23T01:09:36;8.70;99.90
47540;DHT22;33280;52.152;21.052;2024-02-23T01:12:24;8.70;99.90
47540;DHT22;33280;52.152;21.052;2024-02-23T01:15:11;8.60;99.90
47540;DHT22;33280;52.152;21.052;2024-02-23T01:17:59;8.60;99.90
47540;DHT22;33280;52.152;21.052;2024-02-23T01:20:47;8.60;99.90
47540;DHT22;33280;52.152;21.052;2024-02-23T01:23:35;8.60;99.90
47540;DHT22;33280;52.152;21.052;2024-02-23T01:26:23;8.60;99.90
47540;DHT22;33280;52.152;21.052;2024-02-23T01:29:11;8.60;99.90
47540;DHT22;33280;52.152;21.052;2024-02-23T01:31:59;8.50;99.90
47540;DHT22;33280;52.152;21.052;2024-02-23T01:34:47;8.50;99.90
47540;DHT22;33280;52.152;21.052;2024-02-23T01:37:35;8.50;99.90
47540;DHT22;33280;52.152;21.052;2024-02-23T01:40:22;8.50;99.90
47540;DHT22;33280;52.152;21.052;2024-02-23T01:43:10;8.50;99.90
47540;DHT22;33280;52.152;21.052;2024-02-23T01:45:58;8.50;99.90
47540;DHT22;33280;52.152;21.052;2024-02-23T01:48:46;8.50;99.90
47540;DHT22;33280;52.152;21.052;2024-02-23T01:51:34;8.50;99.90
47540;DHT22;33280;52.152;21.052;2024-02-23T01:54:21;8.50;99.90
47540;DHT22;33280;52.152;21.052;2024-02-23T01:57:09;8.60;99.90
47540;DHT22;33280;52.152;21.052;2024-02-23T02:00:18;8.60;99.90
47540;DHT22;33280;52.152;21.052;2024-02-23T02:03:06;8.60;99.90
47540;DHT22;33280;52.152;21.052;2024-02-23T02:05:58;8.70;99.90
47540;DHT22;33280;52.152;21.052;2024-02-23T02:08:46;8.70;99.90
47540;DHT22;33280;52.152;21.052;2024-02-23T02:11:34;8.70;99.90
47540;DHT22;33280;52.152;21.052;2024-02-23T02:14:21;8.70;99.90
47540;DHT22;33280;52.152;21.052;2024-02-23T02:17:10;8.80;99.90
47540;DHT22;33280;52.152;21.052;2024-02-23T02:19:59;8.80;99.90
47540;DHT22;33280;52.152;21.052;2024-02-23T02:22:49;8.80;99.90
47540;DHT22;33280;52.152;21.052;2024-02-23T02:25:36;8.80;99.90
47540;DHT22;33280;52.152;21.052;2024-02-23T02:28:25;8.80;99.90
47540;DHT22;33280;52.152;21.052;2024-02-23T02:31:13;8.80;99.90
47540;DHT22;33280;52.152;21.052;2024-02-23T02:34:01;8.80;99.90
47540;DHT22;33280;52.152;21.052;2024-02-23T02:36:49;8.80;99.90
47540;DHT22;33280;52.152;21.052;2024-02-23T02:39:38;8.90;99.90
47540;DHT22;33280;52.152;21.052;2024-02-23T02:42:26;8.80;99.90
47540;DHT22;33280;52.152;21.052;2024-02-23T02:47:49;8.90;99.90
47540;DHT22;33280;52.152;21.052;2024-02-23T02:50:37;8.90;99.90
47540;DHT22;33280;52.152;21.052;2024-02-23T02:53:25;8.90;99.90
47540;DHT22;33280;52.152;21.052;2024-02-23T02:56:12;8.90;99.90
47540;DHT22;33280;52.152;21.052;2024-02-23T02:58:59;8.90;99.90
47540;DHT22;33280;52.152;21.052;2024-02-23T03:01:47;8.90;99.90
47540;DHT22;33280;52.152;21.052;2024-02-23T03:04:34;9.00;99.90
47540;DHT22;33280;52.152;21.052;2024-02-23T03:07:22;9.00;99.90
47540;DHT22;33280;52.152;21.052;2024-02-23T03:10:10;9.00;99.90
47540;DHT22;33280;52.152;21.052;2024-02-23T03:12:57;9.00;99.90
47540;DHT22;33280;52.152;21.052;2024-02-23T03:15:44;9.00;99.90
47540;DHT22;33280;52.152;21.052;2024-02-23T03:22:46;8.90;99.90
47540;DHT22;33280;52.152;21.052;2024-02-23T03:25:33;8.80;99.90
47540;DHT22;33280;52.152;21.052;2024-02-23T03:30:56;8.50;99.90
47540;DHT22;33280;52.152;21.052;2024-02-23T03:33:44;8.40;99.90
47540;DHT22;33280;52.152;21.052;2024-02-23T03:36:39;8.40;99.90
47540;DHT22;33280;52.152;21.052;2024-02-23T03:39:27;8.40;99.90
47540;DHT22;33280;52.152;21.052;2024-02-23T03:42:15;8.30;99.90
47540;DHT22;33280;52.152;21.052;2024-02-23T03:45:04;8.20;99.90
47540;DHT22;33280;52.152;21.052;2024-02-23T03:47:52;8.00;99.90
47540;DHT22;33280;52.152;21.052;2024-02-23T03:50:40;8.10;99.90
47540;DHT22;33280;52.152;21.052;2024-02-23T03:53:29;8.10;99.90
47540;DHT22;33280;52.152;21.052;2024-02-23T03:56:16;8.00;99.90
47540;DHT22;33280;52.152;21.052;2024-02-23T03:59:04;8.00;99.90
47540;DHT22;33280;52.152;21.052;2024-02-23T04:01:52;8.00;99.90
47540;DHT22;33280;52.152;21.052;2024-02-23T04:04:40;8.00;99.90
47540;DHT22;33280;52.152;21.052;2024-02-23T04:07:28;8.00;99.90
47540;DHT22;33280;52.152;21.052;2024-02-23T04:10:15;8.00;99.90
47540;DHT22;33280;52.152;21.052;2024-02-23T04:13:04;7.90;99.90
47540;DHT22;33280;52.152;21.052;2024-02-23T04:15:52;7.90;99.90
47540;DHT22;33280;52.152;21.052;2024-02-23T04:18:39;7.90;99.90
47540;DHT22;33280;52.152;21.052;2024-02-23T04:21:27;7.90;99.90
47540;DHT22;33280;52.152;21.052;2024-02-23T04:24:15;8.00;99.90
47540;DHT22;33280;52.152;21.052;2024-02-23T04:27:03;7.90;99.90
47540;DHT22;33280;52.152;21.052;2024-02-23T04:29:51;7.90;99.90
47540;DHT22;33280;52.152;21.052;2024-02-23T04:32:39;7.90;99.90
47540;DHT22;33280;52.152;21.052;2024-02-23T04:35:27;7.90;99.90
47540;DHT22;33280;52.152;21.052;2024-02-23T04:38:15;7.80;99.90
47540;DHT22;33280;52.152;21.052;2024-02-23T04:41:04;7.80;99.90
47540;DHT22;33280;52.152;21.052;2024-02-23T04:43:52;7.80;99.90
47540;DHT22;33280;52.152;21.052;2024-02-23T04:46:48;7.80;99.90
47540;DHT22;33280;52.152;21.052;2024-02-23T04:49:36;7.80;99.90
47540;DHT22;33280;52.152;21.052;2024-02-23T04:52:24;7.80;99.90
47540;DHT22;33280;52.152;21.052;2024-02-23T04:55:11;7.70;99.90
47540;DHT22;33280;52.152;21.052;2024-02-23T04:57:59;7.70;99.90
47540;DHT22;33280;52.152;21.052;2024-02-23T05:00:46;7.70;99.90
47540;DHT22;33280;52.152;21.052;2024-02-23T05:03:34;7.70;99.90
47540;DHT22;33280;52.152;21.052;2024-02-23T05:06:22;7.70;99.90
47540;DHT22;33280;52.152;21.052;2024-02-23T05:09:10;7.80;99.90
47540;DHT22;33280;52.152;21.052;2024-02-23T05:11:58;7.80;99.90
47540;DHT22;33280;52.152;21.052;2024-02-23T05:14:47;7.70;99.90
47540;DHT22;33280;52.152;21.052;2024-02-23T05:17:35;7.80;99.90
47540;DHT22;33280;52.152;21.052;2024-02-23T05:20:23;7.70;99.90
47540;DHT22;33280;52.152;21.052;2024-02-23T05:23:11;7.80;99.90
47540;DHT22;33280;52.152;21.052;2024-02-23T05:25:58;7.70;99.90
47540;DHT22;33280;52.152;21.052;2024-02-23T05:28:48;7.70;99.90
47540;DHT22;33280;52.152;21.052;2024-02-23T05:31:47;7.70;99.90
47540;DHT22;33280;52.152;21.052;2024-02-23T05:34:35;7.70;99.90
47540;DHT22;33280;52.152;21.052;2024-02-23T05:37:23;7.60;99.90
47540;DHT22;33280;52.152;21.052;2024-02-23T05:40:11;7.60;99.90
47540;DHT22;33280;52.152;21.052;2024-02-23T05:42:59;7.60;99.90
47540;DHT22;33280;52.152;21.052;2024-02-23T05:45:47;7.60;99.90
47540;DHT22;33280;52.152;21.052;2024-02-23T05:48:34;7.60;99.90
47540;DHT22;33280;52.152;21.052;2024-02-23T05:51:22;7.60;99.90
47540;DHT22;33280;52.152;21.052;2024-02-23T05:54:10;7.60;99.90
47540;DHT22;33280;52.152;21.052;2024-02-23T05:56:57;7.60;99.90
47540;DHT22;33280;52.152;21.052;2024-02-23T05:59:46;7.60;99.90
47540;DHT22;33280;52.152;21.052;2024-02-23T06:02:33;7.60;99.90
47540;DHT22;33280;52.152;21.052;2024-02-23T06:05:21;7.60;99.90
47540;DHT22;33280;52.152;21.052;2024-02-23T06:08:10;7.60;99.90
47540;DHT22;33280;52.152;21.052;2024-02-23T06:10:57;7.60;99.90
47540;DHT22;33280;52.152;21.052;2024-02-23T06:13:47;7.60;99.90
47540;DHT22;33280;52.152;21.052;2024-02-23T06:16:34;7.60;99.90
47540;DHT22;33280;52.152;21.052;2024-02-23T06:19:23;7.60;99.90
47540;DHT22;33280;52.152;21.052;2024-02-23T06:22:10;7.60;99.90
47540;DHT22;33280;52.152;21.052;2024-02-23T06:24:59;7.60;99.90
47540;DHT22;33280;52.152;21.052;2024-02-23T06:27:47;7.60;99.90
47540;DHT22;33280;52.152;21.052;2024-02-23T06:30:34;7.60;99.90
47540;DHT22;33280;52.152;21.052;2024-02-23T06:33:22;7.60;99.90
47540;DHT22;33280;52.152;21.052;2024-02-23T06:36:17;7.60;99.90
47540;DHT22;33280;52.152;21.052;2024-02-23T06:39:05;7.70;99.90
47540;DHT22;33280;52.152;21.052;2024-02-23T06:41:53;7.70;99.90
47540;DHT22;33280;52.152;21.052;2024-02-23T06:44:41;7.70;99.90
47540;DHT22;33280;52.152;21.052;2024-02-23T06:47:29;7.70;99.90
47540;DHT22;33280;52.152;21.052;2024-02-23T06:50:17;7.80;99.90
47540;DHT22;33280;52.152;21.052;2024-02-23T06:53:05;7.80;99.90
47540;DHT22;33280;52.152;21.052;2024-02-23T06:55:55;7.80;99.90
47540;DHT22;33280;52.152;21.052;2024-02-23T06:58:42;7.70;99.90
47540;DHT22;33280;52.152;21.052;2024-02-23T07:01:30;7.70;99.90
47540;DHT22;33280;52.152;21.052;2024-02-23T07:04:18;7.70;99.90
47540;DHT22;33280;52.152;21.052;2024-02-23T07:07:07;7.80;99.90
47540;DHT22;33280;52.152;21.052;2024-02-23T07:09:55;7.80;99.90
47540;DHT22;33280;52.152;21.052;2024-02-23T07:12:43;7.80;99.90
47540;DHT22;33280;52.152;21.052;2024-02-23T07:15:31;7.80;99.90
47540;DHT22;33280;52.152;21.052;2024-02-23T07:18:19;7.80;99.90
47540;DHT22;33280;52.152;21.052;2024-02-23T07:21:07;7.70;99.90
47540;DHT22;33280;52.152;21.052;2024-02-23T07:23:54;7.80;99.90
47540;DHT22;33280;52.152;21.052;2024-02-23T07:26:41;7.80;99.90
47540;DHT22;33280;52.152;21.052;2024-02-23T07:29:29;7.80;99.90
47540;DHT22;33280;52.152;21.052;2024-02-23T07:32:17;7.80;99.90
47540;DHT22;33280;52.152;21.052;2024-02-23T07:35:05;7.80;99.90
47540;DHT22;33280;52.152;21.052;2024-02-23T07:37:52;7.90;99.90
47540;DHT22;33280;52.152;21.052;2024-02-23T07:40:40;7.90;99.90
47540;DHT22;33280;52.152;21.052;2024-02-23T07:43:28;7.80;99.90
47540;DHT22;33280;52.152;21.052;2024-02-23T07:46:16;7.90;99.90
47540;DHT22;33280;52.152;21.052;2024-02-23T07:49:04;7.90;99.90
47540;DHT22;33280;52.152;21.052;2024-02-23T07:51:53;7.90;99.90
47540;DHT22;33280;52.152;21.052;2024-02-23T07:54:41;8.00;99.90
47540;DHT22;33280;52.152;21.052;2024-02-23T07:57:29;8.00;99.90
47540;DHT22;33280;52.152;21.052;2024-02-23T08:00:18;8.00;99.90
47540;DHT22;33280;52.152;21.052;2024-02-23T08:03:06;8.00;99.90
47540;DHT22;33280;52.152;21.052;2024-02-23T08:05:55;8.00;99.90
47540;DHT22;33280;52.152;21.052;2024-02-23T08:08:47;8.00;99.90
47540;DHT22;33280;52.152;21.052;2024-02-23T08:11:35;8.00;99.90
47540;DHT22;33280;52.152;21.052;2024-02-23T08:14:23;8.00;99.90
47540;DHT22;33280;52.152;21.052;2024-02-23T08:17:11;8.10;99.90
47540;DHT22;33280;52.152;21.052;2024-02-23T08:19:58;8.10;99.90
47540;DHT22;33280;52.152;21.052;2024-02-23T08:22:46;8.20;99.90
47540;DHT22;33280;52.152;21.052;2024-02-23T08:25:33;8.20;99.90
47540;DHT22;33280;52.152;21.052;2024-02-23T08:28:21;8.20;99.90
47540;DHT22;33280;52.152;21.052;2024-02-23T08:31:09;8.20;99.90
47540;DHT22;33280;52.152;21.052;2024-02-23T08:33:56;8.20;99.90
47540;DHT22;33280;52.152;21.052;2024-02-23T08:36:45;8.20;99.90
47540;DHT22;33280;52.152;21.052;2024-02-23T08:39:33;8.30;99.90
47540;DHT22;33280;52.152;21.052;2024-02-23T08:42:23;8.30;99.90
47540;DHT22;33280;52.152;21.052;2024-02-23T08:45:10;8.30;99.90
47540;DHT22;33280;52.152;21.052;2024-02-23T08:48:00;8.30;99.90
47540;DHT22;33280;52.152;21.052;2024-02-23T08:50:48;8.30;99.90
47540;DHT22;33280;52.152;21.052;2024-02-23T08:53:47;8.40;99.90
47540;DHT22;33280;52.152;21.052;2024-02-23T08:56:38;8.40;99.90
47540;DHT22;33280;52.152;21.052;2024-02-23T08:59:30;8.40;99.90
47540;DHT22;33280;52.152;21.052;2024-02-23T09:02:17;8.50;99.90
47540;DHT22;33280;52.152;21.052;2024-02-23T09:05:06;8.50;99.90
47540;DHT22;33280;52.152;21.052;2024-02-23T09:07:54;8.50;99.90
47540;DHT22;33280;52.152;21.052;2024-02-23T09:10:42;8.60;99.90
47540;DHT22;33280;52.152;21.052;2024-02-23T09:13:29;8.60;99.90
47540;DHT22;33280;52.152;21.052;2024-02-23T09:16:17;8.60;99.90
47540;DHT22;33280;52.152;21.052;2024-02-23T09:19:06;8.60;99.90
47540;DHT22;33280;52.152;21.052;2024-02-23T09:21:54;8.80;99.90
47540;DHT22;33280;52.152;21.052;2024-02-23T09:24:42;8.80;99.90
47540;DHT22;33280;52.152;21.052;2024-02-23T09:27:29;8.90;99.90
47540;DHT22;33280;52.152;21.052;2024-02-23T09:30:17;8.90;99.90
47540;DHT22;33280;52.152;21.052;2024-02-23T09:33:05;8.90;99.90
47540;DHT22;33280;52.152;21.052;2024-02-23T09:35:53;9.10;99.90
47540;DHT22;33280;52.152;21.052;2024-02-23T09:38:40;9.20;99.90
47540;DHT22;33280;52.152;21.052;2024-02-23T09:41:28;9.40;99.90
47540;DHT22;33280;52.152;21.052;2024-02-23T09:44:17;9.40;99.90
47540;DHT22;33280;52.152;21.052;2024-02-23T09:47:06;9.40;99.90
47540;DHT22;33280;52.152;21.052;2024-02-23T09:50:01;9.50;99.90
47540;DHT22;33280;52.152;21.052;2024-02-23T09:52:51;9.50;99.90
47540;DHT22;33280;52.152;21.052;2024-02-23T09:55:39;9.50;99.90
47540;DHT22;33280;52.152;21.052;2024-02-23T09:58:27;9.40;99.90
47540;DHT22;33280;52.152;21.052;2024-02-23T10:01:25;9.40;99.90
47540;DHT22;33280;52.152;21.052;2024-02-23T10:05:17;9.40;99.90
47540;DHT22;33280;52.152;21.052;2024-02-23T10:08:05;9.40;99.90
47540;DHT22;33280;52.152;21.052;2024-02-23T10:10:54;9.50;99.90
47540;DHT22;33280;52.152;21.052;2024-02-23T10:13:43;9.50;99.90
47540;DHT22;33280;52.152;21.052;2024-02-23T10:16:33;9.50;99.90
47540;DHT22;33280;52.152;21.052;2024-02-23T10:19:24;9.50;99.90
47540;DHT22;33280;52.152;21.052;2024-02-23T10:22:17;9.50;99.90
47540;DHT22;33280;52.152;21.052;2024-02-23T10:25:05;9.50;99.90
47540;DHT22;33280;52.152;21.052;2024-02-23T10:27:52;9.50;99.90
47540;DHT22;33280;52.152;21.052;2024-02-23T10:30:40;9.50;99.90
47540;DHT22;33280;52.152;21.052;2024-02-23T10:33:31;9.50;99.90
47540;DHT22;33280;52.152;21.052;2024-02-23T10:36:20;9.50;99.90
47540;DHT22;33280;52.152;21.052;2024-02-23T10:39:10;9.50;99.90
47540;DHT22;33280;52.152;21.052;2024-02-23T10:42:02;9.50;99.90
47540;DHT22;33280;52.152;21.052;2024-02-23T10:44:51;9.50;99.90
47540;DHT22;33280;52.152;21.052;2024-02-23T10:47:40;9.50;99.90
47540;DHT22;33280;52.152;21.052;2024-02-23T10:50:28;9.40;99.90
47540;DHT22;33280;52.152;21.052;2024-02-23T10:53:16;9.40;99.90
47540;DHT22;33280;52.152;21.052;2024-02-23T10:56:07;9.40;99.90
47540;DHT22;33280;52.152;21.052;2024-02-23T10:58:55;9.40;99.90
47540;DHT22;33280;52.152;21.052;2024-02-23T11:01:42;9.40;99.90
47540;DHT22;33280;52.152;21.052;2024-02-23T11:04:32;9.40;99.90
47540;DHT22;33280;52.152;21.052;2024-02-23T11:07:20;9.40;99.90
47540;DHT22;33280;52.152;21.052;2024-02-23T11:10:13;9.40;99.90
47540;DHT22;33280;52.152;21.052;2024-02-23T11:13:07;9.40;99.90
47540;DHT22;33280;52.152;21.052;2024-02-23T11:16:01;9.40;99.90
47540;DHT22;33280;52.152;21.052;2024-02-23T11:18:49;9.40;99.90
47540;DHT22;33280;52.152;21.052;2024-02-23T11:21:37;9.40;99.90
47540;DHT22;33280;52.152;21.052;2024-02-23T11:24:29;9.40;99.90
47540;DHT22;33280;52.152;21.052;2024-02-23T11:27:16;9.40;99.90
47540;DHT22;33280;52.152;21.052;2024-02-23T11:30:08;9.40;99.90
47540;DHT22;33280;52.152;21.052;2024-02-23T11:32:59;9.50;99.90
47540;DHT22;33280;52.152;21.052;2024-02-23T11:35:47;9.40;99.90
47540;DHT22;33280;52.152;21.052;2024-02-23T11:38:39;9.50;99.90
47540;DHT22;33280;52.152;21.052;2024-02-23T11:41:28;9.50;99.90
47540;DHT22;33280;52.152;21.052;2024-02-23T11:44:17;9.50;99.90
47540;DHT22;33280;52.152;21.052;2024-02-23T11:47:05;9.60;99.90
47540;DHT22;33280;52.152;21.052;2024-02-23T11:49:52;9.60;99.90
47540;DHT22;33280;52.152;21.052;2024-02-23T11:52:40;9.60;99.90
47540;DHT22;33280;52.152;21.052;2024-02-23T11:55:28;9.60;99.90
47540;DHT22;33280;52.152;21.052;2024-02-23T11:58:16;9.70;99.90
47540;DHT22;33280;52.152;21.052;2024-02-23T12:01:05;9.70;99.90
47540;DHT22;33280;52.152;21.052;2024-02-23T12:03:55;9.70;99.90
47540;DHT22;33280;52.152;21.052;2024-02-23T12:06:42;9.70;99.90
47540;DHT22;33280;52.152;21.052;2024-02-23T12:09:30;9.70;99.90
47540;DHT22;33280;52.152;21.052;2024-02-23T12:12:18;9.80;99.90
47540;DHT22;33280;52.152;21.052;2024-02-23T12:15:06;9.80;99.90
47540;DHT22;33280;52.152;21.052;2024-02-23T12:17:54;9.70;99.90
47540;DHT22;33280;52.152;21.052;2024-02-23T12:20:47;9.80;99.90
47540;DHT22;33280;52.152;21.052;2024-02-23T12:23:43;9.90;99.90
47540;DHT22;33280;52.152;21.052;2024-02-23T12:26:33;9.90;99.90
47540;DHT22;33280;52.152;21.052;2024-02-23T12:29:21;10.00;99.90
47540;DHT22;33280;52.152;21.052;2024-02-23T12:32:09;10.00;99.90
47540;DHT22;33280;52.152;21.052;2024-02-23T12:34:57;10.00;99.90
47540;DHT22;33280;52.152;21.052;2024-02-23T12:37:44;10.00;99.90
47540;DHT22;33280;52.152;21.052;2024-02-23T12:40:33;10.00;99.90
47540;DHT22;33280;52.152;21.052;2024-02-23T12:43:20;10.00;99.90
47540;DHT22;33280;52.152;21.052;2024-02-23T12:46:09;10.10;99.90
47540;DHT22;33280;52.152;21.052;2024-02-23T12:48:56;10.00;99.90
47540;DHT22;33280;52.152;21.052;2024-02-23T12:51:44;10.10;99.90
47540;DHT22;33280;52.152;21.052;2024-02-23T12:54:31;10.10;99.90
47540;DHT22;33280;52.152;21.052;2024-02-23T12:57:19;10.10;99.90
47540;DHT22;33280;52.152;21.052;2024-02-23T13:00:07;10.20;99.90
47540;DHT22;33280;52.152;21.052;2024-02-23T13:02:56;10.20;99.90
47540;DHT22;33280;52.152;21.052;2024-02-23T13:05:44;10.20;99.90
47540;DHT22;33280;52.152;21.052;2024-02-23T13:08:32;10.20;99.90
47540;DHT22;33280;52.152;21.052;2024-02-23T13:11:23;10.20;99.90
47540;DHT22;33280;52.152;21.052;2024-02-23T13:14:11;10.30;99.90
47540;DHT22;33280;52.152;21.052;2024-02-23T13:16:59;10.30;99.90
47540;DHT22;33280;52.152;21.052;2024-02-23T13:19:47;10.40;99.90
47540;DHT22;33280;52.152;21.052;2024-02-23T13:22:51;10.40;99.90
47540;DHT22;33280;52.152;21.052;2024-02-23T13:25:39;10.30;99.90
47540;DHT22;33280;52.152;21.052;2024-02-23T13:28:27;10.30;99.90
47540;DHT22;33280;52.152;21.052;2024-02-23T13:31:20;10.30;99.90
47540;DHT22;33280;52.152;21.052;2024-02-23T13:34:07;10.30;99.90
47540;DHT22;33280;52.152;21.052;2024-02-23T13:36:57;10.30;99.90
47540;DHT22;33280;52.152;21.052;2024-02-23T13:39:44;10.20;99.90
47540;DHT22;33280;52.152;21.052;2024-02-23T13:42:32;10.20;99.90
47540;DHT22;33280;52.152;21.052;2024-02-23T13:45:19;10.10;99.90
47540;DHT22;33280;52.152;21.052;2024-02-23T13:48:07;10.10;99.90
47540;DHT22;33280;52.152;21.052;2024-02-23T13:50:55;10.20;99.90
47540;DHT22;33280;52.152;21.052;2024-02-23T13:53:42;10.10;99.90
47540;DHT22;33280;52.152;21.052;2024-02-23T13:56:30;10.10;99.90
47540;DHT22;33280;52.152;21.052;2024-02-23T13:59:18;10.10;99.90
47540;DHT22;33280;52.152;21.052;2024-02-23T14:02:06;10.00;99.90
47540;DHT22;33280;52.152;21.052;2024-02-23T14:04:59;10.00;99.90
47540;DHT22;33280;52.152;21.052;2024-02-23T14:07:49;10.10;99.90
47540;DHT22;33280;52.152;21.052;2024-02-23T14:10:36;10.10;99.90
47540;DHT22;33280;52.152;21.052;2024-02-23T14:13:24;10.10;99.90
47540;DHT22;33280;52.152;21.052;2024-02-23T14:16:11;10.10;99.90
47540;DHT22;33280;52.152;21.052;2024-02-23T14:18:59;10.00;99.90
47540;DHT22;33280;52.152;21.052;2024-02-23T14:21:47;9.90;99.90
47540;DHT22;33280;52.152;21.052;2024-02-23T14:24:35;10.00;99.90
47540;DHT22;33280;52.152;21.052;2024-02-23T14:27:23;9.90;99.90
47540;DHT22;33280;52.152;21.052;2024-02-23T14:30:13;9.90;99.90
47540;DHT22;33280;52.152;21.052;2024-02-23T14:33:00;9.90;99.90
47540;DHT22;33280;52.152;21.052;2024-02-23T14:35:49;9.90;99.90
47540;DHT22;33280;52.152;21.052;2024-02-23T14:38:39;9.80;99.90
47540;DHT22;33280;52.152;21.052;2024-02-23T14:41:27;9.90;99.90
47540;DHT22;33280;52.152;21.052;2024-02-23T14:44:15;9.80;99.90
47540;DHT22;33280;52.152;21.052;2024-02-23T14:47:06;9.80;99.90
47540;DHT22;33280;52.152;21.052;2024-02-23T14:49:54;9.80;99.90
47540;DHT22;33280;52.152;21.052;2024-02-23T14:52:42;9.90;99.90
47540;DHT22;33280;52.152;21.052;2024-02-23T14:55:32;9.90;99.90
47540;DHT22;33280;52.152;21.052;2024-02-23T14:58:19;9.80;99.90
47540;DHT22;33280;52.152;21.052;2024-02-23T15:01:07;9.80;99.90
47540;DHT22;33280;52.152;21.052;2024-02-23T15:03:55;9.90;99.90
47540;DHT22;33280;52.152;21.052;2024-02-23T15:06:47;9.90;99.90
47540;DHT22;33280;52.152;21.052;2024-02-23T15:09:36;9.90;99.90
47540;DHT22;33280;52.152;21.052;2024-02-23T15:12:26;9.90;99.90
47540;DHT22;33280;52.152;21.052;2024-02-23T15:15:19;9.90;99.90
47540;DHT22;33280;52.152;21.052;2024-02-23T15:18:09;10.10;99.90
47540;DHT22;33280;52.152;21.052;2024-02-23T15:21:00;10.00;99.90
47540;DHT22;33280;52.152;21.052;2024-02-23T15:23:48;10.00;99.90
47540;DHT22;33280;52.152;21.052;2024-02-23T15:26:36;10.00;99.90
47540;DHT22;33280;52.152;21.052;2024-02-23T15:29:24;10.00;99.90
47540;DHT22;33280;52.152;21.052;2024-02-23T15:32:13;10.00;99.90
47540;DHT22;33280;52.152;21.052;2024-02-23T15:35:04;10.00;99.90
47540;DHT22;33280;52.152;21.052;2024-02-23T15:37:52;10.00;99.90
47540;DHT22;33280;52.152;21.052;2024-02-23T15:40:40;10.00;99.90
47540;DHT22;33280;52.152;21.052;2024-02-23T15:43:28;10.10;99.90
47540;DHT22;33280;52.152;21.052;2024-02-23T15:46:16;10.10;99.90
47540;DHT22;33280;52.152;21.052;2024-02-23T15:49:05;10.00;99.90
47540;DHT22;33280;52.152;21.052;2024-02-23T15:52:24;10.00;99.90
47540;DHT22;33280;52.152;21.052;2024-02-23T15:55:19;10.00;99.90
47540;DHT22;33280;52.152;21.052;2024-02-23T15:58:09;10.00;99.90
47540;DHT22;33280;52.152;21.052;2024-02-23T16:01:11;10.00;99.90
47540;DHT22;33280;52.152;21.052;2024-02-23T16:04:00;10.00;99.90
47540;DHT22;33280;52.152;21.052;2024-02-23T16:06:48;9.90;99.90
47540;DHT22;33280;52.152;21.052;2024-02-23T16:09:36;9.90;99.90
47540;DHT22;33280;52.152;21.052;2024-02-23T16:12:25;9.90;99.90
47540;DHT22;33280;52.152;21.052;2024-02-23T16:15:13;9.90;99.90
47540;DHT22;33280;52.152;21.052;2024-02-23T16:18:01;9.90;99.90
47540;DHT22;33280;52.152;21.052;2024-02-23T16:20:50;9.90;99.90
47540;DHT22;33280;52.152;21.052;2024-02-23T16:23:38;9.90;99.90
47540;DHT22;33280;52.152;21.052;2024-02-23T16:26:26;9.90;99.90
47540;DHT22;33280;52.152;21.052;2024-02-23T16:29:13;9.90;99.90
47540;DHT22;33280;52.152;21.052;2024-02-23T16:32:01;9.80;99.90
47540;DHT22;33280;52.152;21.052;2024-02-23T16:34:51;9.80;99.90
47540;DHT22;33280;52.152;21.052;2024-02-23T16:37:43;9.80;99.90
47540;DHT22;33280;52.152;21.052;2024-02-23T16:40:30;9.80;99.90
47540;DHT22;33280;52.152;21.052;2024-02-23T16:43:24;9.80;99.90
47540;DHT22;33280;52.152;21.052;2024-02-23T16:46:12;9.80;99.90
47540;DHT22;33280;52.152;21.052;2024-02-23T16:49:03;9.80;99.90
47540;DHT22;33280;52.152;21.052;2024-02-23T16:51:53;9.80;99.90
47540;DHT22;33280;52.152;21.052;2024-02-23T16:54:40;9.80;99.90
47540;DHT22;33280;52.152;21.052;2024-02-23T16:57:28;9.70;99.90
47540;DHT22;33280;52.152;21.052;2024-02-23T17:00:16;9.60;99.90
47540;DHT22;33280;52.152;21.052;2024-02-23T17:03:04;9.60;99.90
47540;DHT22;33280;52.152;21.052;2024-02-23T17:05:52;9.60;99.90
47540;DHT22;33280;52.152;21.052;2024-02-23T17:08:40;9.50;99.90
47540;DHT22;33280;52.152;21.052;2024-02-23T17:11:28;9.60;99.90
47540;DHT22;33280;52.152;21.052;2024-02-23T17:14:16;9.60;99.90
47540;DHT22;33280;52.152;21.052;2024-02-23T17:17:05;9.50;99.90
47540;DHT22;33280;52.152;21.052;2024-02-23T17:19:55;9.50;99.90
47540;DHT22;33280;52.152;21.052;2024-02-23T17:22:44;9.50;99.90
47540;DHT22;33280;52.152;21.052;2024-02-23T17:25:33;9.50;99.90
47540;DHT22;33280;52.152;21.052;2024-02-23T17:28:20;9.60;99.90
47540;DHT22;33280;52.152;21.052;2024-02-23T17:31:08;9.60;99.90
47540;DHT22;33280;52.152;21.052;2024-02-23T17:33:56;9.60;99.90
47540;DHT22;33280;52.152;21.052;2024-02-23T17:36:44;9.60;99.90
47540;DHT22;33280;52.152;21.052;2024-02-23T17:39:33;9.60;99.90
47540;DHT22;33280;52.152;21.052;2024-02-23T17:42:20;9.60;99.90
47540;DHT22;33280;52.152;21.052;2024-02-23T17:45:08;9.60;99.90
47540;DHT22;33280;52.152;21.052;2024-02-23T17:47:58;9.60;99.90
47540;DHT22;33280;52.152;21.052;2024-02-23T17:50:47;9.60;99.90
47540;DHT22;33280;52.152;21.052;2024-02-23T17:53:34;9.60;99.90